createdAt,value
2023-01-29T00:02:30.780Z,3.11
2023-01-29T00:05:10.026Z,3.23
2023-01-29T00:07:52.275Z,3.25
2023-01-29T00:10:28.656Z,3.20
2023-01-29T00:12:59.507Z,3.33
2023-01-29T00:15:28.799Z,3.35
2023-01-29T00:17:56.739Z,3.34
2023-01-29T00:20:25.643Z,3.41
2023-01-29T00:22:53.981Z,3.40
2023-01-29T00:25:23.504Z,3.38
2023-01-29T00:27:51.533Z,3.21
2023-01-29T00:30:21.028Z,3.38
2023-01-29T00:32:55.000Z,3.37
2023-01-29T00:35:23.944Z,3.35
2023-01-29T00:37:52.101Z,3.34
2023-01-29T00:40:20.010Z,3.43
2023-01-29T00:43:05.818Z,3.41
2023-01-29T00:45:33.961Z,3.34
2023-01-29T00:48:05.943Z,3.34
2023-01-29T00:50:33.795Z,3.34
2023-01-29T00:53:01.704Z,3.36
2023-01-29T00:55:30.065Z,3.36
2023-01-29T00:57:58.363Z,3.41
2023-01-29T01:00:26.553Z,3.46
2023-01-29T01:03:08.886Z,3.34
2023-01-29T01:05:39.233Z,3.42
2023-01-29T01:08:28.753Z,3.37
2023-01-29T01:11:01.554Z,3.44
2023-01-29T01:13:29.697Z,3.44
2023-01-29T01:15:57.562Z,3.44
2023-01-29T01:18:25.612Z,3.49
2023-01-29T01:20:58.732Z,3.54
2023-01-29T01:23:28.046Z,3.53
2023-01-29T01:25:56.031Z,3.55
2023-01-29T01:28:24.033Z,3.59
2023-01-29T01:30:51.970Z,3.57
2023-01-29T01:33:21.361Z,3.51
2023-01-29T01:35:49.358Z,3.48
2023-01-29T01:38:18.700Z,3.56
2023-01-29T01:40:47.461Z,3.57
2023-01-29T01:43:15.399Z,3.50
2023-01-29T01:45:46.607Z,3.53
2023-01-29T01:48:23.553Z,3.50
2023-01-29T01:50:54.822Z,3.55
2023-01-29T01:53:30.911Z,3.55
2023-01-29T01:56:08.180Z,3.62
2023-01-29T01:58:38.707Z,3.63
2023-01-29T02:01:09.427Z,3.61
2023-01-29T02:04:02.169Z,3.66
2023-01-29T02:06:48.128Z,3.63
2023-01-29T02:09:35.473Z,3.39
2023-01-29T02:12:07.274Z,3.57
2023-01-29T02:14:39.028Z,3.58
2023-01-29T02:17:08.030Z,3.58
2023-01-29T02:19:46.617Z,3.59
2023-01-29T02:22:30.944Z,3.48
2023-01-29T02:25:22.202Z,3.46
2023-01-29T02:28:23.550Z,3.54
2023-01-29T02:31:00.547Z,3.57
2023-01-29T02:33:37.874Z,3.61
2023-01-29T02:36:19.517Z,3.55
2023-01-29T02:38:56.951Z,3.56
2023-01-29T02:41:31.287Z,3.60
2023-01-29T02:44:07.612Z,3.70
2023-01-29T02:46:42.555Z,3.71
2023-01-29T02:49:17.098Z,3.70
2023-01-29T02:51:50.773Z,3.68
2023-01-29T02:54:25.382Z,3.70
2023-01-29T02:56:57.500Z,3.68
2023-01-29T02:59:35.618Z,3.67
2023-01-29T03:02:09.497Z,3.64
2023-01-29T03:04:45.742Z,3.68
2023-01-29T03:07:41.236Z,3.63
2023-01-29T03:10:17.776Z,3.66
2023-01-29T03:12:49.254Z,3.66
2023-01-29T03:15:25.310Z,3.68
2023-01-29T03:17:57.834Z,3.61
2023-01-29T03:20:32.573Z,3.66
2023-01-29T03:23:07.510Z,3.72
2023-01-29T03:25:54.806Z,3.72
2023-01-29T03:28:42.641Z,3.70
2023-01-29T03:31:33.193Z,3.71
2023-01-29T03:34:08.050Z,3.71
2023-01-29T03:36:45.224Z,3.73
2023-01-29T03:39:16.248Z,3.74
2023-01-29T03:41:50.311Z,3.77
2023-01-29T03:44:24.957Z,3.72
2023-01-29T03:47:00.044Z,3.75
2023-01-29T03:49:40.850Z,3.70
2023-01-29T03:52:17.284Z,3.75
2023-01-29T03:55:00.857Z,3.76
2023-01-29T03:57:36.068Z,3.79
2023-01-29T04:00:09.571Z,3.74
2023-01-29T04:02:48.404Z,3.76
2023-01-29T04:05:21.231Z,3.76
2023-01-29T04:07:58.207Z,3.72
2023-01-29T04:10:32.672Z,3.79
2023-01-29T04:13:05.605Z,3.81
2023-01-29T04:15:40.193Z,3.75
2023-01-29T04:18:13.538Z,3.76
2023-01-29T04:20:41.947Z,3.81
2023-01-29T04:23:21.914Z,3.79
2023-01-29T04:26:08.252Z,3.76
2023-01-29T04:28:50.716Z,3.80
2023-01-29T04:31:22.868Z,3.84
2023-01-29T04:34:05.224Z,3.79
2023-01-29T04:36:39.545Z,3.80
2023-01-29T04:39:19.152Z,3.84
2023-01-29T04:41:54.985Z,3.85
2023-01-29T04:44:30.404Z,3.79
2023-01-29T04:47:07.219Z,3.81
2023-01-29T04:49:46.978Z,3.81
2023-01-29T04:52:23.364Z,3.77
2023-01-29T04:55:01.474Z,3.84
2023-01-29T04:57:36.050Z,3.82
2023-01-29T05:00:12.188Z,3.85
2023-01-29T05:02:44.730Z,3.85
2023-01-29T05:05:15.892Z,3.71
2023-01-29T05:07:46.626Z,3.84
2023-01-29T05:10:19.061Z,3.87
2023-01-29T05:12:52.650Z,3.78
2023-01-29T05:15:24.487Z,3.82
2023-01-29T05:17:53.770Z,3.76
2023-01-29T05:20:23.855Z,3.73
2023-01-29T05:22:52.088Z,3.68
2023-01-29T05:25:24.178Z,3.63
2023-01-29T05:28:04.729Z,3.64
2023-01-29T05:30:34.204Z,3.60
2023-01-29T05:33:04.641Z,3.58
2023-01-29T05:35:36.196Z,3.60
2023-01-29T05:38:04.261Z,3.55
2023-01-29T05:40:32.955Z,3.49
2023-01-29T05:43:00.934Z,3.48
2023-01-29T05:45:28.990Z,3.55
2023-01-29T05:47:58.408Z,3.59
2023-01-29T05:50:27.254Z,3.50
2023-01-29T05:53:08.172Z,3.62
2023-01-29T05:55:36.297Z,3.61
2023-01-29T05:58:05.971Z,3.64
2023-01-29T06:00:35.496Z,3.51
2023-01-29T06:03:03.872Z,3.52
2023-01-29T06:05:32.747Z,3.54
2023-01-29T06:08:04.259Z,3.65
2023-01-29T06:10:32.289Z,3.69
2023-01-29T06:13:00.328Z,3.69
2023-01-29T06:15:28.498Z,3.72
2023-01-29T06:17:56.696Z,3.71
2023-01-29T06:20:25.605Z,3.68
2023-01-29T06:22:55.773Z,3.73
2023-01-29T06:25:25.100Z,3.74
2023-01-29T06:27:57.716Z,3.77
2023-01-29T06:30:28.280Z,3.70
2023-01-29T06:32:58.832Z,3.80
2023-01-29T06:35:27.082Z,3.81
2023-01-29T06:37:55.042Z,3.84
2023-01-29T06:40:23.043Z,3.78
2023-01-29T06:42:52.570Z,3.78
2023-01-29T06:45:20.672Z,3.76
2023-01-29T06:47:48.666Z,3.81
2023-01-29T06:50:17.046Z,3.75
2023-01-29T06:52:45.200Z,3.79
2023-01-29T06:55:13.217Z,3.80
2023-01-29T06:57:41.158Z,3.82
2023-01-29T07:00:15.769Z,3.81
2023-01-29T07:02:43.810Z,3.78
2023-01-29T07:05:22.723Z,3.77
2023-01-29T07:07:50.645Z,3.74
2023-01-29T07:10:19.247Z,3.68
2023-01-29T07:12:47.425Z,3.72
2023-01-29T07:15:23.399Z,3.70
2023-01-29T07:17:58.784Z,3.66
2023-01-29T07:20:27.465Z,3.69
2023-01-29T07:22:55.437Z,3.69
2023-01-29T07:25:23.565Z,3.68
2023-01-29T07:27:51.668Z,3.69
2023-01-29T07:30:23.248Z,3.69
2023-01-29T07:32:51.281Z,3.65
2023-01-29T07:35:19.388Z,3.68
2023-01-29T07:37:50.309Z,3.62
2023-01-29T07:40:20.943Z,3.65
2023-01-29T07:42:49.072Z,3.63
2023-01-29T07:45:17.030Z,3.48
2023-01-29T07:47:52.898Z,3.42
2023-01-29T07:50:20.801Z,3.37
2023-01-29T07:52:48.679Z,3.31
2023-01-29T07:55:16.840Z,3.39
2023-01-29T07:57:45.280Z,3.43
2023-01-29T08:00:14.833Z,3.49
2023-01-29T08:02:47.365Z,3.47
2023-01-29T08:05:15.400Z,3.57
2023-01-29T08:07:57.239Z,3.57
2023-01-29T08:10:35.834Z,3.59
2023-01-29T08:13:05.830Z,3.62
2023-01-29T08:15:36.071Z,3.60
2023-01-29T08:18:07.485Z,3.66
2023-01-29T08:20:35.538Z,3.72
2023-01-29T08:23:06.748Z,3.82
2023-01-29T08:25:35.749Z,3.93
2023-01-29T08:28:04.050Z,3.88
2023-01-29T08:30:34.368Z,4.01
2023-01-29T08:33:08.261Z,4.00
2023-01-29T08:35:36.376Z,4.02
2023-01-29T08:38:06.876Z,4.07
2023-01-29T08:40:35.796Z,4.04
2023-01-29T08:43:07.130Z,4.06
2023-01-29T08:45:38.852Z,4.13
2023-01-29T08:48:10.322Z,4.17
2023-01-29T08:50:38.989Z,4.13
2023-01-29T08:53:08.774Z,4.08
2023-01-29T08:55:38.270Z,4.03
2023-01-29T08:58:06.855Z,4.08
2023-01-29T09:00:35.571Z,4.14
2023-01-29T09:03:03.848Z,4.19
2023-01-29T09:05:33.426Z,4.25
2023-01-29T09:08:01.591Z,4.29
2023-01-29T09:10:29.919Z,4.25
2023-01-29T09:12:57.800Z,4.33
2023-01-29T09:15:26.825Z,4.39
2023-01-29T09:17:54.747Z,4.42
2023-01-29T09:20:23.288Z,4.47
2023-01-29T09:22:53.677Z,4.56
2023-01-29T09:25:21.753Z,4.48
2023-01-29T09:27:49.677Z,4.45
2023-01-29T09:30:19.004Z,4.38
2023-01-29T09:32:53.481Z,4.34
2023-01-29T09:35:22.580Z,4.32
2023-01-29T09:37:52.723Z,4.40
2023-01-29T09:40:31.868Z,4.47
2023-01-29T09:43:03.840Z,4.42
2023-01-29T09:45:32.408Z,4.45
2023-01-29T09:48:03.399Z,4.59
2023-01-29T09:50:36.215Z,4.63
2023-01-29T09:53:13.772Z,4.66
2023-01-29T09:55:47.163Z,4.75
2023-01-29T09:58:20.615Z,4.81
2023-01-29T10:00:55.659Z,4.79
2023-01-29T10:03:49.162Z,4.77
2023-01-29T10:06:27.351Z,4.87
2023-01-29T10:09:23.685Z,5.16
2023-01-29T10:12:00.284Z,4.89
2023-01-29T10:14:38.419Z,4.81
2023-01-29T10:17:21.567Z,4.77
2023-01-29T10:20:01.023Z,4.70
2023-01-29T10:22:53.205Z,4.62
2023-01-29T10:25:24.843Z,4.77
2023-01-29T10:27:58.234Z,4.74
2023-01-29T10:30:32.995Z,4.71
2023-01-29T10:33:04.417Z,4.62
2023-01-29T10:43:07.338Z,4.47
2023-01-29T10:49:28.625Z,4.33
2023-01-29T10:52:25.258Z,4.38
2023-01-29T10:55:07.693Z,4.32
2023-01-29T10:57:58.500Z,4.54
2023-01-29T11:00:31.745Z,4.56
2023-01-29T11:03:26.322Z,4.48
2023-01-29T11:06:02.710Z,4.69
2023-01-29T11:08:35.857Z,4.65
2023-01-29T11:11:09.168Z,4.56
2023-01-29T11:13:41.637Z,4.55
2023-01-29T11:16:11.719Z,4.47
2023-01-29T11:18:51.972Z,4.47
2023-01-29T11:21:20.028Z,4.61
2023-01-29T11:23:49.638Z,4.51
2023-01-29T11:26:22.371Z,4.54
2023-01-29T11:28:52.312Z,4.61
2023-01-29T11:31:24.413Z,4.67
2023-01-29T11:33:55.392Z,4.52
2023-01-29T11:36:35.619Z,4.60
2023-01-29T11:39:18.497Z,4.50
2023-01-29T11:41:50.274Z,4.45
2023-01-29T11:44:28.702Z,4.70
2023-01-29T11:47:00.592Z,4.58
2023-01-29T11:49:34.851Z,4.61
2023-01-29T11:52:05.986Z,4.65
2023-01-29T11:54:39.457Z,4.57
2023-01-29T11:57:24.571Z,4.74
2023-01-29T11:59:54.184Z,4.74
2023-01-29T12:02:30.852Z,4.74
2023-01-29T12:05:03.024Z,4.86
2023-01-29T12:07:34.836Z,4.85
2023-01-29T12:10:03.610Z,5.00
2023-01-29T12:12:39.256Z,5.01
2023-01-29T12:15:20.712Z,4.95
2023-01-29T12:18:13.835Z,5.09
2023-01-29T12:20:46.101Z,4.98
2023-01-29T12:23:27.417Z,4.94
2023-01-29T12:26:03.644Z,4.82
2023-01-29T12:28:51.793Z,4.71
2023-01-29T12:31:30.428Z,4.73
2023-01-29T12:34:06.695Z,4.65
2023-01-29T12:36:41.431Z,4.67
2023-01-29T12:39:12.364Z,4.67
2023-01-29T12:41:46.187Z,4.74
2023-01-29T12:44:18.176Z,4.62
2023-01-29T12:46:50.727Z,4.60
2023-01-29T12:49:26.093Z,4.60
2023-01-29T12:52:00.803Z,4.66
2023-01-29T12:54:36.456Z,4.68
2023-01-29T12:57:09.880Z,4.51
2023-01-29T12:59:43.804Z,4.59
2023-01-29T13:02:31.707Z,4.72
2023-01-29T13:05:08.080Z,4.68
2023-01-29T13:07:41.113Z,4.69
2023-01-29T13:10:15.686Z,4.67
2023-01-29T13:12:52.369Z,4.56
2023-01-29T13:15:28.477Z,4.55
2023-01-29T13:18:02.170Z,4.39
2023-01-29T13:20:35.099Z,4.52
2023-01-29T13:23:20.068Z,4.51
2023-01-29T13:25:51.851Z,4.50
2023-01-29T13:28:22.381Z,4.36
2023-01-29T13:31:12.543Z,4.40
2023-01-29T13:33:43.305Z,4.37
2023-01-29T13:36:18.128Z,4.27
2023-01-29T13:38:46.148Z,4.36
2023-01-29T13:41:15.844Z,4.43
2023-01-29T13:43:50.159Z,4.40
2023-01-29T13:46:21.524Z,4.29
2023-01-29T13:48:51.803Z,4.23
2023-01-29T13:51:24.055Z,4.30
2023-01-29T13:53:58.211Z,4.28
2023-01-29T13:56:48.946Z,4.29
2023-01-29T13:59:24.574Z,4.21
2023-01-29T14:02:04.981Z,4.14
2023-01-29T14:04:34.211Z,4.21
2023-01-29T14:07:23.778Z,4.21
2023-01-29T14:10:14.983Z,4.24
2023-01-29T14:12:45.089Z,4.09
2023-01-29T14:15:30.692Z,4.11
2023-01-29T14:18:05.929Z,4.11
2023-01-29T14:20:45.892Z,3.93
2023-01-29T14:23:25.429Z,4.10
2023-01-29T14:25:55.044Z,3.91
2023-01-29T14:28:26.674Z,4.02
2023-01-29T14:30:55.227Z,4.01
2023-01-29T14:33:32.857Z,3.93
2023-01-29T14:36:05.820Z,3.90
2023-01-29T14:38:35.286Z,4.02
2023-01-29T14:41:15.918Z,3.96
2023-01-29T14:43:43.870Z,3.98
2023-01-29T14:46:43.740Z,3.95
2023-01-29T14:49:11.938Z,3.96
2023-01-29T14:51:44.304Z,3.88
2023-01-29T14:54:26.778Z,3.88
2023-01-29T14:57:02.188Z,3.86
2023-01-29T14:59:37.449Z,3.84
2023-01-29T15:02:17.591Z,3.85
2023-01-29T15:04:50.007Z,3.68
2023-01-29T15:07:28.234Z,3.85
2023-01-29T15:10:21.079Z,3.88
2023-01-29T15:12:58.167Z,3.85
2023-01-29T15:15:36.520Z,3.79
2023-01-29T15:18:09.302Z,3.82
2023-01-29T15:20:38.946Z,3.78
2023-01-29T15:23:25.825Z,3.87
2023-01-29T15:25:59.367Z,3.83
2023-01-29T15:28:31.572Z,3.88
2023-01-29T15:31:02.416Z,3.89
2023-01-29T15:33:43.880Z,3.88
2023-01-29T15:36:33.384Z,3.88
2023-01-29T15:39:21.504Z,3.90
2023-01-29T15:41:53.068Z,3.92
2023-01-29T15:44:25.082Z,3.85
2023-01-29T15:46:56.102Z,3.92
2023-01-29T15:49:30.985Z,3.91
2023-01-29T15:52:02.736Z,3.80
2023-01-29T15:54:35.638Z,3.91
2023-01-29T15:57:10.489Z,3.86
2023-01-29T15:59:46.049Z,3.90
2023-01-29T16:03:01.725Z,3.89
2023-01-29T16:05:47.807Z,3.94
2023-01-29T16:08:16.905Z,3.71
2023-01-29T16:11:26.819Z,3.95
2023-01-29T16:13:57.606Z,3.89
2023-01-29T16:16:29.274Z,3.78
2023-01-29T16:19:00.696Z,3.89
2023-01-29T16:25:04.192Z,4.00
2023-01-29T16:27:36.452Z,3.95
2023-01-29T16:30:07.569Z,3.83
2023-01-29T16:32:53.089Z,3.89
2023-01-29T16:35:21.161Z,3.87
2023-01-29T16:38:41.093Z,3.91
2023-01-29T16:44:04.200Z,3.84
2023-01-29T16:46:37.051Z,3.97
2023-01-29T16:49:49.786Z,3.81
2023-01-29T16:52:24.529Z,3.95
2023-01-29T16:55:25.942Z,3.93
2023-01-29T16:57:55.340Z,3.96
2023-01-29T17:00:32.179Z,3.93
2023-01-29T17:03:04.544Z,3.96
2023-01-29T17:05:38.129Z,3.95
2023-01-29T17:08:06.936Z,3.89
2023-01-29T17:10:36.808Z,3.83
2023-01-29T17:13:07.751Z,3.79
2023-01-29T17:15:44.267Z,3.89
2023-01-29T17:18:19.490Z,3.95
2023-01-29T17:20:49.108Z,3.92
2023-01-29T17:23:19.853Z,3.99
2023-01-29T17:25:48.623Z,3.99
2023-01-29T17:28:18.505Z,3.99
2023-01-29T17:31:00.355Z,3.93
2023-01-29T17:33:38.260Z,4.01
2023-01-29T17:36:13.523Z,4.04
2023-01-29T17:38:48.350Z,4.03
2023-01-29T17:41:23.364Z,4.07
2023-01-29T17:43:52.422Z,4.10
2023-01-29T17:46:20.788Z,4.05
2023-01-29T17:48:50.300Z,4.14
2023-01-29T17:51:19.956Z,4.01
2023-01-29T17:53:47.994Z,4.10
2023-01-29T17:56:18.442Z,4.12
2023-01-29T17:58:47.466Z,4.08
2023-01-29T18:01:17.459Z,4.16
2023-01-29T18:03:45.726Z,4.19
2023-01-29T18:06:27.144Z,4.18
2023-01-29T18:08:56.402Z,4.17
2023-01-29T18:11:25.148Z,4.15
2023-01-29T18:13:53.285Z,4.16
2023-01-29T18:16:22.180Z,4.04
2023-01-29T18:18:50.501Z,4.14
2023-01-29T18:21:20.642Z,4.15
2023-01-29T18:23:48.562Z,4.15
2023-01-29T18:26:18.175Z,4.19
2023-01-29T18:28:46.110Z,4.11
2023-01-29T18:31:14.495Z,4.14
2023-01-29T18:33:43.856Z,4.27
2023-01-29T18:36:11.863Z,4.19
2023-01-29T18:38:41.317Z,4.19
2023-01-29T18:41:11.331Z,4.25
2023-01-29T18:43:40.052Z,4.24
2023-01-29T18:46:08.908Z,4.30
2023-01-29T18:48:37.872Z,4.27
2023-01-29T18:51:06.677Z,4.35
2023-01-29T18:53:34.696Z,4.32
2023-01-29T18:56:06.121Z,4.34
2023-01-29T18:58:36.469Z,4.36
2023-01-29T19:01:09.420Z,4.31
2023-01-29T19:03:38.225Z,4.22
2023-01-29T19:06:09.007Z,4.41
2023-01-29T19:08:37.539Z,4.46
2023-01-29T19:11:08.988Z,4.48
2023-01-29T19:13:38.085Z,4.47
2023-01-29T19:16:09.168Z,4.41
2023-01-29T19:18:37.649Z,4.42
2023-01-29T19:21:10.711Z,4.54
2023-01-29T19:23:38.926Z,4.55
2023-01-29T19:26:08.834Z,4.56
2023-01-29T19:28:38.226Z,4.56
2023-01-29T19:31:06.369Z,4.51
2023-01-29T19:33:38.999Z,4.49
2023-01-29T19:36:07.903Z,4.59
2023-01-29T19:38:38.725Z,4.59
2023-01-29T19:41:08.268Z,4.55
2023-01-29T19:43:38.226Z,4.70
2023-01-29T19:46:07.559Z,4.66
2023-01-29T19:48:36.759Z,4.70
2023-01-29T19:51:08.400Z,4.72
2023-01-29T19:53:37.348Z,4.63
2023-01-29T19:56:11.747Z,4.54
2023-01-29T19:58:40.196Z,4.70
2023-01-29T20:01:13.979Z,4.69
2023-01-29T20:03:44.559Z,4.72
2023-01-29T20:06:19.653Z,4.62
2023-01-29T20:09:03.082Z,4.61
2023-01-29T20:11:33.544Z,4.57
2023-01-29T20:14:01.687Z,4.60
2023-01-29T20:16:29.853Z,4.68
2023-01-29T20:19:13.987Z,4.56
2023-01-29T20:21:46.049Z,4.65
2023-01-29T20:24:14.218Z,4.67
2023-01-29T20:26:45.097Z,4.67
2023-01-29T20:29:15.396Z,4.60
2023-01-29T20:31:43.536Z,4.61
2023-01-29T20:34:11.516Z,4.66
2023-01-29T20:36:39.609Z,4.61
2023-01-29T20:39:07.724Z,4.66
2023-01-29T20:41:41.535Z,4.72
2023-01-29T20:44:10.889Z,4.62
2023-01-29T20:46:40.385Z,4.67
2023-01-29T20:49:09.048Z,4.75
2023-01-29T20:51:37.508Z,4.76
2023-01-29T20:54:05.641Z,4.77
2023-01-29T20:56:38.169Z,4.77
2023-01-29T20:59:14.061Z,4.82
2023-01-29T21:01:43.174Z,4.82
2023-01-29T21:04:11.077Z,4.69
2023-01-29T21:06:39.407Z,4.75
2023-01-29T21:09:07.543Z,4.77
2023-01-29T21:11:35.512Z,4.86
2023-01-29T21:14:03.568Z,4.80
2023-01-29T21:16:33.021Z,4.91
2023-01-29T21:19:01.266Z,4.92
2023-01-29T21:21:29.278Z,4.87
2023-01-29T21:23:58.175Z,5.00
2023-01-29T21:26:26.177Z,4.97
2023-01-29T21:28:53.996Z,4.94
2023-01-29T21:31:21.974Z,4.90
2023-01-29T21:33:51.503Z,4.98
2023-01-29T21:36:19.494Z,5.04
2023-01-29T21:38:47.658Z,5.03
2023-01-29T21:41:15.865Z,5.05
2023-01-29T21:43:44.863Z,5.04
2023-01-29T21:46:12.863Z,4.99
2023-01-29T21:48:41.383Z,5.10
2023-01-29T21:51:10.844Z,5.14
2023-01-29T21:53:38.957Z,5.16
2023-01-29T21:56:09.928Z,5.10
2023-01-29T21:58:37.874Z,5.16
2023-01-29T22:01:35.804Z,5.21
2023-01-29T22:03:55.279Z,5.25
2023-01-29T22:06:24.959Z,5.26
2023-01-29T22:08:52.870Z,5.22
2023-01-29T22:11:20.927Z,5.34
2023-01-29T22:13:49.881Z,5.42
2023-01-29T22:16:17.983Z,5.46
2023-01-29T22:18:45.993Z,5.47
2023-01-29T22:21:13.892Z,5.46
2023-01-29T22:23:43.341Z,5.55
2023-01-29T22:26:12.254Z,5.48
2023-01-29T22:28:40.632Z,5.61
2023-01-29T22:31:09.656Z,5.63
2023-01-29T22:33:38.396Z,5.57
2023-01-29T22:36:07.181Z,5.59
2023-01-29T22:38:36.205Z,5.53
2023-01-29T22:41:05.914Z,5.65
2023-01-29T22:43:34.099Z,5.67
2023-01-29T22:46:03.415Z,5.60
2023-01-29T22:48:31.514Z,5.68
2023-01-29T22:51:10.484Z,5.70
2023-01-29T22:53:39.116Z,5.74
2023-01-29T22:56:10.456Z,5.79
2023-01-29T22:58:38.593Z,5.81
2023-01-29T23:01:06.618Z,5.81
2023-01-29T23:03:38.076Z,5.83
2023-01-29T23:06:06.212Z,5.77
2023-01-29T23:08:34.596Z,5.77
2023-01-29T23:11:14.533Z,5.84
2023-01-29T23:13:46.312Z,5.79
2023-01-29T23:16:15.921Z,5.90
2023-01-29T23:18:44.417Z,5.83
2023-01-29T23:21:13.696Z,5.90
2023-01-29T23:23:45.006Z,5.89
2023-01-29T23:26:31.449Z,5.86
2023-01-29T23:29:01.074Z,6.00
2023-01-29T23:31:32.012Z,5.95
2023-01-29T23:33:59.932Z,5.92
2023-01-29T23:36:28.539Z,5.88
2023-01-29T23:38:56.513Z,6.00
2023-01-29T23:41:27.665Z,6.08
2023-01-29T23:44:03.264Z,6.11
2023-01-29T23:46:31.352Z,6.14
2023-01-29T23:49:04.697Z,6.22
2023-01-29T23:51:32.977Z,6.24
2023-01-29T23:54:02.685Z,6.10
2023-01-29T23:56:30.621Z,6.21
2023-01-29T23:58:59.070Z,6.30
